Time;durP1;ratioP1;P1;durP2;ratioP2;P2;SDS_P1;SDS_P2;PMS_P1;PMS_P2;Temp;Humidity;BMP_temperature;BMP_pressure;BME280_temperature;BME280_humidity;BME280_pressure;Samples;Min_cycle;Max_cycle;Signal;HPM_P1;HPM_P2
2021/06/02 00:02:07;;;;;;;;;;;21.20;55.70;;;;;;5046211;28;19966;-73
2021/06/02 00:04:34;;;;;;;;;;;21.20;56.20;;;;;;5035451;28;19970;-70
2021/06/02 00:07:00;;;;;;;;;;;21.20;55.70;;;;;;5041724;28;19959;-71
2021/06/02 00:09:26;;;;;;;;;;;21.20;55.60;;;;;;5043716;28;19966;-71
2021/06/02 00:11:56;;;;;;;;;;;21.10;55.50;;;;;;5040460;28;20489;-75
2021/06/02 00:14:22;;;;;;;;;;;21.20;56.20;;;;;;5043595;28;20053;-71
2021/06/02 00:16:48;;;;;;;;;;;21.20;55.50;;;;;;5025845;28;19965;-70
2021/06/02 00:19:14;;;;;;;;;;;21.20;56.20;;;;;;5042357;28;19967;-70
2021/06/02 00:21:40;;;;;;;;;;;21.20;56.20;;;;;;5039498;28;20453;-71
2021/06/02 00:24:07;;;;;;;;;;;21.20;56.20;;;;;;5045155;28;19963;-71
2021/06/02 00:26:33;;;;;;;;;;;21.20;56.10;;;;;;5044016;28;20557;-70
2021/06/02 00:29:01;;;;;;;;;;;21.20;55.60;;;;;;5044802;28;20048;-73
2021/06/02 00:31:27;;;;;;;;;;;21.30;55.60;;;;;;5021054;28;19959;-70
2021/06/02 00:33:54;;;;;;;;;;;21.30;55.30;;;;;;5038512;28;20322;-70
2021/06/02 00:36:23;;;;;;;;;;;21.30;55.00;;;;;;5041525;28;20358;-73
2021/06/02 00:38:49;;;;;;;;;;;21.30;54.70;;;;;;5046866;28;19957;-70
2021/06/02 00:41:15;;;;;;;;;;;21.20;55.20;;;;;;5016133;28;19955;-72
2021/06/02 00:43:41;;;;;;;;;;;21.20;55.20;;;;;;5037286;28;20625;-71
2021/06/02 00:46:08;;;;;;;;;;;21.20;55.10;;;;;;5014616;28;19967;-71
2021/06/02 00:48:34;;;;;;;;;;;21.30;55.30;;;;;;5046843;28;19965;-70
2021/06/02 00:51:00;;;;;;;;;;;21.30;55.20;;;;;;5041349;28;19962;-71
2021/06/02 00:53:26;;;;;;;;;;;21.30;55.10;;;;;;5041346;28;19964;-70
2021/06/02 00:55:52;;;;;;;;;;;21.30;54.70;;;;;;5042444;28;20408;-72
2021/06/02 00:58:23;;;;;;;;;;;21.30;54.70;;;;;;5046320;28;19963;-73
2021/06/02 01:00:49;;;;;;;;;;;21.30;54.70;;;;;;5043580;28;19968;-70
2021/06/02 01:03:17;;;;;;;;;;;21.30;54.70;;;;;;5042606;28;19973;-70
2021/06/02 01:05:43;;;;;;;;;;;21.30;54.60;;;;;;5034159;28;19954;-71
2021/06/02 01:08:08;;;;;;;;;;;21.20;54.40;;;;;;5039800;28;20012;-70
2021/06/02 01:10:34;;;;;;;;;;;21.20;54.80;;;;;;5039186;28;20014;-70
2021/06/02 01:13:00;;;;;;;;;;;21.20;54.40;;;;;;5043790;28;19966;-71
2021/06/02 01:15:27;;;;;;;;;;;21.30;54.90;;;;;;5046959;28;20031;-71
2021/06/02 01:17:53;;;;;;;;;;;21.30;54.70;;;;;;5045690;28;19970;-69
2021/06/02 01:20:20;;;;;;;;;;;21.30;54.50;;;;;;5042863;28;20019;-69
2021/06/02 01:22:47;;;;;;;;;;;21.30;54.70;;;;;;5033002;28;21389;-71
2021/06/02 01:25:14;;;;;;;;;;;21.30;54.60;;;;;;5039967;28;20381;-70
2021/06/02 01:27:40;;;;;;;;;;;21.30;54.60;;;;;;5041931;28;21224;-70
2021/06/02 01:30:06;;;;;;;;;;;21.30;54.50;;;;;;5042887;28;19981;-71
2021/06/02 01:32:45;;;;;;;;;;;21.20;54.20;;;;;;5045057;28;19962;-71
2021/06/02 01:35:22;;;;;;;;;;;21.20;54.40;;;;;;5041354;28;19962;-72
2021/06/02 01:38:08;;;;;;;;;;;21.20;54.10;;;;;;5035512;28;19981;-71
2021/06/02 01:40:42;;;;;;;;;;;21.20;54.50;;;;;;5035981;28;19970;-71
2021/06/02 01:43:13;;;;;;;;;;;21.20;54.00;;;;;;5040216;28;19959;-71
2021/06/02 01:45:44;;;;;;;;;;;21.20;53.90;;;;;;5043710;28;19966;-71
2021/06/02 01:48:27;;;;;;;;;;;21.20;54.10;;;;;;5043911;28;20338;-71
2021/06/02 01:51:26;;;;;;;;;;;21.20;54.00;;;;;;5035598;28;19989;-72
2021/06/02 01:54:13;;;;;;;;;;;21.20;53.90;;;;;;4949644;28;19969;-71
2021/06/02 01:57:03;;;;;;;;;;;21.20;53.90;;;;;;4949762;28;19993;-71
2021/06/02 01:59:50;;;;;;;;;;;21.10;53.80;;;;;;5014730;28;19967;-71
2021/06/02 02:02:20;;;;;;;;;;;21.10;54.30;;;;;;5044142;28;20016;-73
2021/06/02 02:04:51;;;;;;;;;;;21.10;54.80;;;;;;5044398;28;19971;-73
2021/06/02 02:07:31;;;;;;;;;;;21.20;54.80;;;;;;5043095;28;19960;-71
2021/06/02 02:10:05;;;;;;;;;;;21.20;54.90;;;;;;5039820;28;20430;-71
2021/06/02 02:12:32;;;;;;;;;;;21.20;54.80;;;;;;5014489;28;19959;-70
2021/06/02 02:15:03;;;;;;;;;;;21.20;54.10;;;;;;5044308;28;19959;-72
2021/06/02 02:17:45;;;;;;;;;;;21.20;54.50;;;;;;5039890;28;20373;-71
2021/06/02 02:20:13;;;;;;;;;;;21.20;54.10;;;;;;5041401;28;20494;-71
2021/06/02 02:22:48;;;;;;;;;;;21.20;54.40;;;;;;5042472;28;19959;-69
2021/06/02 02:25:15;;;;;;;;;;;21.10;54.80;;;;;;5030932;28;21084;-71
2021/06/02 02:27:42;;;;;;;;;;;21.10;54.40;;;;;;5040723;28;19958;-72
2021/06/02 02:30:12;;;;;;;;;;;21.10;54.20;;;;;;5041971;28;20056;-71
2021/06/02 02:32:48;;;;;;;;;;;21.10;54.30;;;;;;5043396;28;19964;-72
2021/06/02 02:35:19;;;;;;;;;;;21.10;54.80;;;;;;5042666;28;20077;-71
2021/06/02 02:37:46;;;;;;;;;;;21.10;55.10;;;;;;5042940;28;19972;-71
2021/06/02 02:40:13;;;;;;;;;;;21.10;55.00;;;;;;5042182;28;19970;-70
2021/06/02 02:42:41;;;;;;;;;;;21.10;54.70;;;;;;5041734;28;19962;-72
2021/06/02 02:45:09;;;;;;;;;;;21.20;54.70;;;;;;5035328;28;19958;-72
2021/06/02 02:47:36;;;;;;;;;;;21.10;54.60;;;;;;5040740;28;19961;-70
2021/06/02 02:50:04;;;;;;;;;;;21.20;54.40;;;;;;5047750;28;19962;-71
2021/06/02 02:52:39;;;;;;;;;;;21.10;54.60;;;;;;5038162;28;19966;-71
2021/06/02 02:55:07;;;;;;;;;;;21.10;54.20;;;;;;5040234;28;20064;-72
2021/06/02 02:57:36;;;;;;;;;;;21.10;54.20;;;;;;5046498;28;19959;-70
2021/06/02 03:00:04;;;;;;;;;;;21.10;55.20;;;;;;5046054;28;20059;-70
2021/06/02 03:02:33;;;;;;;;;;;21.10;54.30;;;;;;4990819;28;19960;-71
2021/06/02 03:05:00;;;;;;;;;;;21.10;54.30;;;;;;5033536;28;19958;-72
2021/06/02 03:07:26;;;;;;;;;;;21.10;54.70;;;;;;5034222;28;20080;-71
2021/06/02 03:09:53;;;;;;;;;;;21.10;54.50;;;;;;5045135;28;20521;-72
2021/06/02 03:12:24;;;;;;;;;;;21.20;54.30;;;;;;5046171;28;19962;-72
2021/06/02 03:14:50;;;;;;;;;;;21.20;53.90;;;;;;5037785;28;19965;-71
2021/06/02 03:17:19;;;;;;;;;;;21.20;53.80;;;;;;5045675;28;20425;-70
2021/06/02 03:19:48;;;;;;;;;;;21.30;53.70;;;;;;5044655;28;19924;-71
2021/06/02 03:22:14;;;;;;;;;;;21.30;53.70;;;;;;5043788;28;20017;-72
2021/06/02 03:24:53;;;;;;;;;;;21.30;53.60;;;;;;5044803;28;19959;-71
2021/06/02 03:27:21;;;;;;;;;;;21.30;53.30;;;;;;5048042;28;19929;-71
2021/06/02 03:29:51;;;;;;;;;;;21.30;53.40;;;;;;5043589;28;20008;-70
2021/06/02 03:32:21;;;;;;;;;;;21.20;53.40;;;;;;5047443;28;19966;-71
2021/06/02 03:34:52;;;;;;;;;;;21.30;53.40;;;;;;5043349;28;19961;-71
2021/06/02 03:37:29;;;;;;;;;;;21.30;53.40;;;;;;5046449;28;19968;-74
2021/06/02 03:39:58;;;;;;;;;;;21.20;53.30;;;;;;5027647;28;19958;-73
2021/06/02 03:42:25;;;;;;;;;;;21.30;53.40;;;;;;5041245;28;20049;-71
2021/06/02 03:44:54;;;;;;;;;;;21.20;53.30;;;;;;5046261;28;20028;-71
2021/06/02 03:47:21;;;;;;;;;;;21.30;53.50;;;;;;5045345;28;19962;-70
2021/06/02 03:49:51;;;;;;;;;;;21.30;53.50;;;;;;5016950;28;19955;-72
2021/06/02 03:52:21;;;;;;;;;;;21.30;53.40;;;;;;5044031;28;20632;-72
2021/06/02 03:54:51;;;;;;;;;;;21.40;53.40;;;;;;5046809;28;19969;-70
2021/06/02 03:57:20;;;;;;;;;;;21.40;53.30;;;;;;5045591;28;19963;-71
2021/06/02 03:59:51;;;;;;;;;;;21.40;53.30;;;;;;5044454;28;19962;-72
2021/06/02 04:02:18;;;;;;;;;;;21.40;53.20;;;;;;5038726;28;20485;-70
2021/06/02 04:04:56;;;;;;;;;;;21.40;53.20;;;;;;5042649;28;19961;-71
2021/06/02 04:07:22;;;;;;;;;;;21.40;53.30;;;;;;5042858;28;21217;-70
2021/06/02 04:09:52;;;;;;;;;;;21.30;53.20;;;;;;5044365;28;19966;-71
2021/06/02 04:12:19;;;;;;;;;;;21.30;53.30;;;;;;5041475;28;19963;-70
2021/06/02 04:14:52;;;;;;;;;;;21.30;53.40;;;;;;5045257;28;19975;-72
2021/06/02 04:17:18;;;;;;;;;;;21.30;53.40;;;;;;5041933;28;20465;-70
2021/06/02 04:19:44;;;;;;;;;;;21.30;53.40;;;;;;5043632;28;19962;-70
2021/06/02 04:22:12;;;;;;;;;;;21.20;53.30;;;;;;5044549;28;19988;-71
2021/06/02 04:24:38;;;;;;;;;;;21.20;53.40;;;;;;5040830;28;20426;-72
2021/06/02 04:27:04;;;;;;;;;;;21.20;53.40;;;;;;5046798;28;19962;-70
2021/06/02 04:29:30;;;;;;;;;;;21.20;53.70;;;;;;5042889;28;19961;-71
2021/06/02 04:31:57;;;;;;;;;;;21.30;53.70;;;;;;5042870;28;19966;-72
2021/06/02 04:34:23;;;;;;;;;;;21.30;54.30;;;;;;5036499;28;19954;-71
2021/06/02 04:36:50;;;;;;;;;;;21.30;53.50;;;;;;5036957;28;19959;-71
2021/06/02 04:39:18;;;;;;;;;;;21.40;53.50;;;;;;5039849;28;19966;-72
2021/06/02 04:41:44;;;;;;;;;;;21.40;53.40;;;;;;5029918;28;19962;-72
2021/06/02 04:44:12;;;;;;;;;;;21.30;53.30;;;;;;5045862;28;20002;-70
2021/06/02 04:46:38;;;;;;;;;;;21.30;53.20;;;;;;5042928;28;19959;-71
2021/06/02 04:49:04;;;;;;;;;;;21.30;53.10;;;;;;5041162;28;19965;-71
2021/06/02 04:51:59;;;;;;;;;;;21.30;53.20;;;;;;5045016;28;19936;-71
2021/06/02 04:54:34;;;;;;;;;;;21.30;52.90;;;;;;5042990;28;20014;-72
2021/06/02 04:57:19;;;;;;;;;;;21.30;52.80;;;;;;5016908;28;20004;-71
2021/06/02 04:59:59;;;;;;;;;;;21.40;53.00;;;;;;5038336;28;19954;-71
2021/06/02 05:02:32;;;;;;;;;;;21.40;52.70;;;;;;5042990;28;19969;-70
2021/06/02 05:05:08;;;;;;;;;;;21.40;52.50;;;;;;5043176;28;20024;-72
2021/06/02 05:07:44;;;;;;;;;;;21.30;52.60;;;;;;5027640;28;19965;-71
2021/06/02 05:10:29;;;;;;;;;;;21.40;52.50;;;;;;5023998;28;19963;-71
2021/06/02 05:13:13;;;;;;;;;;;21.30;52.30;;;;;;5039667;28;19960;-71
2021/06/02 05:15:59;;;;;;;;;;;21.30;52.70;;;;;;5040883;28;19958;-72
2021/06/02 05:18:40;;;;;;;;;;;21.20;52.70;;;;;;5035923;28;19981;-70
2021/06/02 05:24:07;;;;;;;;;;;21.20;53.00;;;;;;5026480;28;19978;-71
2021/06/02 05:26:48;;;;;;;;;;;21.10;53.60;;;;;;5005998;28;19962;-70
2021/06/02 05:29:23;;;;;;;;;;;21.10;53.30;;;;;;5039384;28;21700;-70
2021/06/02 05:31:59;;;;;;;;;;;21.10;53.30;;;;;;5043569;28;19958;-71
2021/06/02 05:34:34;;;;;;;;;;;21.10;53.20;;;;;;5017982;28;19928;-70
2021/06/02 05:37:08;;;;;;;;;;;21.10;53.30;;;;;;5010708;28;19990;-70
2021/06/02 05:39:49;;;;;;;;;;;21.10;53.30;;;;;;5030400;28;19966;-70
2021/06/02 05:42:20;;;;;;;;;;;21.10;53.40;;;;;;5037952;28;20433;-73
2021/06/02 05:45:01;;;;;;;;;;;21.10;53.40;;;;;;5042269;28;20449;-72
2021/06/02 05:47:48;;;;;;;;;;;21.20;53.30;;;;;;5043243;28;19966;-69
2021/06/02 05:50:25;;;;;;;;;;;21.20;54.10;;;;;;5038023;28;20932;-71
2021/06/02 05:53:24;;;;;;;;;;;21.20;53.10;;;;;;5037015;28;19967;-72
2021/06/02 05:56:05;;;;;;;;;;;21.20;53.30;;;;;;5024752;28;19962;-71
2021/06/02 05:58:36;;;;;;;;;;;21.20;53.20;;;;;;5012636;28;20381;-71
2021/06/02 06:01:03;;;;;;;;;;;21.20;53.40;;;;;;5011227;28;19970;-71
2021/06/02 06:03:48;;;;;;;;;;;21.10;53.50;;;;;;5041136;28;20077;-72
2021/06/02 06:06:19;;;;;;;;;;;21.20;53.70;;;;;;5040368;28;19966;-72
2021/06/02 06:09:00;;;;;;;;;;;21.10;53.50;;;;;;5040596;28;19961;-70
2021/06/02 06:11:34;;;;;;;;;;;21.20;53.50;;;;;;5030429;28;19962;-71
2021/06/02 06:14:06;;;;;;;;;;;21.20;53.40;;;;;;5008648;28;19966;-70
2021/06/02 06:16:36;;;;;;;;;;;21.20;54.20;;;;;;5012474;28;19964;-70
2021/06/02 06:19:18;;;;;;;;;;;21.20;53.50;;;;;;5035775;28;19962;-71
2021/06/02 06:22:02;;;;;;;;;;;21.20;53.80;;;;;;5044047;28;19963;-70
2021/06/02 06:24:31;;;;;;;;;;;21.20;53.70;;;;;;5043298;28;19963;-70
2021/06/02 06:26:57;;;;;;;;;;;21.10;53.70;;;;;;5043094;28;19962;-70
2021/06/02 06:29:26;;;;;;;;;;;21.10;53.80;;;;;;5043915;28;20057;-71
2021/06/02 06:31:52;;;;;;;;;;;21.10;53.90;;;;;;5044153;28;19977;-72
2021/06/02 06:34:19;;;;;;;;;;;21.20;54.00;;;;;;5047293;28;20000;-71
2021/06/02 06:36:45;;;;;;;;;;;21.20;54.00;;;;;;5046097;28;19968;-70
2021/06/02 06:39:18;;;;;;;;;;;21.20;54.00;;;;;;5044448;28;19969;-72
2021/06/02 06:41:46;;;;;;;;;;;21.20;54.00;;;;;;5042699;28;21290;-71
2021/06/02 06:44:12;;;;;;;;;;;21.20;54.00;;;;;;5045683;28;19962;-72
2021/06/02 06:46:38;;;;;;;;;;;21.20;54.10;;;;;;5029651;28;19955;-71
2021/06/02 06:49:04;;;;;;;;;;;21.20;54.20;;;;;;5030785;28;20605;-70
2021/06/02 06:51:30;;;;;;;;;;;21.20;54.20;;;;;;5045270;28;20021;-72
2021/06/02 06:53:56;;;;;;;;;;;21.20;55.10;;;;;;5032775;28;19959;-72
2021/06/02 06:56:22;;;;;;;;;;;21.20;54.30;;;;;;5042168;28;19960;-71
2021/06/02 06:58:50;;;;;;;;;;;21.10;54.30;;;;;;5044863;28;20971;-72
2021/06/02 07:01:16;;;;;;;;;;;21.10;54.40;;;;;;5030056;28;19924;-71
2021/06/02 07:03:42;;;;;;;;;;;21.10;54.40;;;;;;5041092;28;19963;-72
2021/06/02 07:06:08;;;;;;;;;;;21.10;54.40;;;;;;5044122;28;20383;-72
2021/06/02 07:08:34;;;;;;;;;;;21.20;54.50;;;;;;5035101;28;19970;-72
2021/06/02 07:11:00;;;;;;;;;;;21.20;54.50;;;;;;5014793;28;20537;-71
2021/06/02 07:13:26;;;;;;;;;;;21.20;54.60;;;;;;5026979;28;20912;-71
2021/06/02 07:15:54;;;;;;;;;;;21.20;54.60;;;;;;5030316;28;19970;-71
2021/06/02 07:18:20;;;;;;;;;;;21.20;54.60;;;;;;5046006;28;19963;-72
2021/06/02 07:20:46;;;;;;;;;;;21.20;54.60;;;;;;5040397;28;20309;-71
2021/06/02 07:23:12;;;;;;;;;;;21.20;54.50;;;;;;5044443;28;19971;-72
2021/06/02 07:25:38;;;;;;;;;;;21.20;54.60;;;;;;5041956;28;19971;-71
2021/06/02 07:28:04;;;;;;;;;;;21.10;54.50;;;;;;5043503;28;19965;-70
2021/06/02 07:30:30;;;;;;;;;;;21.10;54.60;;;;;;5038489;28;19924;-70
2021/06/02 07:32:58;;;;;;;;;;;21.10;54.60;;;;;;5045033;28;19964;-72
2021/06/02 07:35:24;;;;;;;;;;;21.10;54.60;;;;;;5041399;28;19977;-73
2021/06/02 07:37:50;;;;;;;;;;;21.10;54.70;;;;;;5043988;28;19959;-74
2021/06/02 07:40:16;;;;;;;;;;;21.10;54.70;;;;;;5040710;28;19973;-71
2021/06/02 07:42:42;;;;;;;;;;;21.10;54.80;;;;;;5046970;28;20012;-71
2021/06/02 07:45:09;;;;;;;;;;;21.10;54.80;;;;;;5045763;28;19978;-71
2021/06/02 07:47:35;;;;;;;;;;;21.10;54.90;;;;;;5039942;28;19965;-71
2021/06/02 07:50:02;;;;;;;;;;;21.10;54.80;;;;;;5042070;28;19963;-69
2021/06/02 07:52:28;;;;;;;;;;;21.10;54.70;;;;;;5038860;28;20046;-70
2021/06/02 07:54:54;;;;;;;;;;;21.10;54.70;;;;;;5045945;28;19966;-72
2021/06/02 07:57:20;;;;;;;;;;;21.10;54.60;;;;;;5030088;28;20456;-71
2021/06/02 07:59:46;;;;;;;;;;;21.10;54.80;;;;;;5026567;28;20598;-70
2021/06/02 08:02:12;;;;;;;;;;;21.10;54.80;;;;;;5039070;28;20964;-70
2021/06/02 08:04:38;;;;;;;;;;;21.10;54.80;;;;;;5045669;28;20011;-72
2021/06/02 08:07:08;;;;;;;;;;;21.10;54.80;;;;;;5042015;28;19963;-73
2021/06/02 08:09:34;;;;;;;;;;;21.10;54.90;;;;;;5039036;28;19961;-71
2021/06/02 08:12:00;;;;;;;;;;;21.10;54.90;;;;;;5044624;28;20010;-71
2021/06/02 08:14:27;;;;;;;;;;;21.10;55.00;;;;;;5045806;28;19959;-71
2021/06/02 08:16:53;;;;;;;;;;;21.10;55.00;;;;;;5030309;28;19965;-71
2021/06/02 08:19:19;;;;;;;;;;;21.10;55.00;;;;;;5039104;28;21385;-70
2021/06/02 08:21:45;;;;;;;;;;;21.10;55.00;;;;;;5043518;28;19955;-72
2021/06/02 08:24:12;;;;;;;;;;;21.10;55.10;;;;;;5032766;28;19977;-71
2021/06/02 08:26:38;;;;;;;;;;;21.10;55.20;;;;;;5018274;28;20016;-72
2021/06/02 08:29:04;;;;;;;;;;;21.10;55.30;;;;;;5039507;28;19966;-73
2021/06/02 08:31:30;;;;;;;;;;;21.10;55.30;;;;;;5043626;28;19962;-71
2021/06/02 08:33:57;;;;;;;;;;;21.10;55.20;;;;;;5043692;28;19963;-73
2021/06/02 08:36:23;;;;;;;;;;;21.10;55.20;;;;;;5045593;28;20447;-72
2021/06/02 08:38:49;;;;;;;;;;;21.10;55.20;;;;;;5046483;28;19968;-71
2021/06/02 08:41:16;;;;;;;;;;;21.10;55.00;;;;;;5038960;28;19963;-71
2021/06/02 08:43:43;;;;;;;;;;;21.20;55.30;;;;;;5039456;28;19964;-72
2021/06/02 08:46:09;;;;;;;;;;;21.20;55.20;;;;;;5042881;28;19968;-72
2021/06/02 08:48:36;;;;;;;;;;;21.20;55.40;;;;;;5034176;28;19966;-72
2021/06/02 08:51:02;;;;;;;;;;;21.10;55.20;;;;;;5014039;28;19963;-72
2021/06/02 08:53:28;;;;;;;;;;;21.20;55.20;;;;;;5018820;28;20463;-73
2021/06/02 08:55:54;;;;;;;;;;;21.10;55.20;;;;;;5043282;28;19964;-71
2021/06/02 08:58:22;;;;;;;;;;;21.10;55.20;;;;;;5043330;28;19954;-71
2021/06/02 09:00:48;;;;;;;;;;;21.20;55.30;;;;;;5042257;28;19928;-73
2021/06/02 09:03:14;;;;;;;;;;;21.20;55.50;;;;;;5028040;28;20807;-73
2021/06/02 09:05:40;;;;;;;;;;;21.20;55.50;;;;;;5025198;28;20945;-72
2021/06/02 09:08:06;;;;;;;;;;;21.20;55.50;;;;;;5042645;28;21321;-72
2021/06/02 09:10:36;;;;;;;;;;;21.20;55.50;;;;;;5029137;28;19967;-71
2021/06/02 09:13:02;;;;;;;;;;;21.20;55.50;;;;;;5013846;28;19959;-70
2021/06/02 09:15:33;;;;;;;;;;;21.20;55.40;;;;;;5043342;28;19959;-73
2021/06/02 09:18:00;;;;;;;;;;;21.20;55.50;;;;;;5041985;28;19969;-72
2021/06/02 09:20:33;;;;;;;;;;;21.20;55.50;;;;;;5042467;28;19966;-72
2021/06/02 09:22:59;;;;;;;;;;;21.20;55.40;;;;;;5041536;28;19974;-72
2021/06/02 09:25:26;;;;;;;;;;;21.20;55.10;;;;;;5045296;28;19994;-72
2021/06/02 09:27:54;;;;;;;;;;;21.20;55.20;;;;;;5044290;28;19965;-72
2021/06/02 09:30:21;;;;;;;;;;;21.30;55.30;;;;;;5033598;28;19996;-71
2021/06/02 09:32:49;;;;;;;;;;;21.30;55.30;;;;;;5019285;28;19955;-70
2021/06/02 09:35:15;;;;;;;;;;;21.30;55.30;;;;;;5041053;28;19966;-71
2021/06/02 09:37:52;;;;;;;;;;;21.30;55.20;;;;;;5042409;28;20012;-72
2021/06/02 09:40:28;;;;;;;;;;;21.30;55.10;;;;;;5039653;28;20511;-71
2021/06/02 09:42:54;;;;;;;;;;;21.30;55.10;;;;;;5043936;28;20461;-71
2021/06/02 09:45:21;;;;;;;;;;;21.30;55.10;;;;;;5042999;28;20010;-71
2021/06/02 09:47:49;;;;;;;;;;;21.30;55.20;;;;;;5027339;28;20017;-71
2021/06/02 09:50:17;;;;;;;;;;;21.30;55.10;;;;;;5028392;28;19967;-71
2021/06/02 09:52:45;;;;;;;;;;;21.30;55.20;;;;;;5043274;28;19954;-71
2021/06/02 09:55:21;;;;;;;;;;;21.40;55.20;;;;;;5031375;28;20048;-71
2021/06/02 09:57:47;;;;;;;;;;;21.30;55.00;;;;;;5034855;28;20899;-71
2021/06/02 10:00:14;;;;;;;;;;;21.40;55.10;;;;;;5029166;28;19963;-70
2021/06/02 10:02:40;;;;;;;;;;;21.40;55.10;;;;;;5043285;28;19980;-73
2021/06/02 10:05:08;;;;;;;;;;;21.40;55.30;;;;;;5046307;28;19966;-71
2021/06/02 10:07:36;;;;;;;;;;;21.40;55.30;;;;;;5046906;28;19939;-72
2021/06/02 10:10:09;;;;;;;;;;;21.30;55.30;;;;;;5013422;28;19961;-72
2021/06/02 10:12:35;;;;;;;;;;;21.30;55.30;;;;;;5019779;28;21277;-70
2021/06/02 10:15:01;;;;;;;;;;;21.30;55.40;;;;;;5021045;28;20939;-70
2021/06/02 10:17:28;;;;;;;;;;;21.40;55.60;;;;;;5044952;28;19958;-71
2021/06/02 10:19:54;;;;;;;;;;;21.30;55.90;;;;;;5040066;28;19958;-70
2021/06/02 10:22:22;;;;;;;;;;;21.30;55.40;;;;;;5030996;28;19981;-69
2021/06/02 10:24:48;;;;;;;;;;;21.40;55.60;;;;;;5027501;28;20522;-72
2021/06/02 10:27:14;;;;;;;;;;;21.30;55.30;;;;;;5042726;28;19993;-72
2021/06/02 10:29:40;;;;;;;;;;;21.30;55.40;;;;;;5033003;28;21047;-72
2021/06/02 10:32:06;;;;;;;;;;;21.30;55.30;;;;;;5039896;28;19963;-72
2021/06/02 10:34:32;;;;;;;;;;;21.30;55.40;;;;;;5045231;28;19928;-71
2021/06/02 10:36:58;;;;;;;;;;;21.30;55.40;;;;;;5049896;28;19958;-73
2021/06/02 10:39:27;;;;;;;;;;;21.30;55.40;;;;;;5043155;28;19963;-74
2021/06/02 10:41:54;;;;;;;;;;;21.30;55.40;;;;;;5043777;28;20023;-73
2021/06/02 10:44:21;;;;;;;;;;;21.40;55.50;;;;;;5047725;28;19959;-71
2021/06/02 10:46:47;;;;;;;;;;;21.30;55.40;;;;;;5041825;28;19963;-72
2021/06/02 10:49:14;;;;;;;;;;;21.30;55.40;;;;;;5038574;28;19975;-72
2021/06/02 10:51:41;;;;;;;;;;;21.30;55.50;;;;;;5042387;28;20348;-71
2021/06/02 10:54:07;;;;;;;;;;;21.30;55.50;;;;;;5038711;28;19925;-71
2021/06/02 10:56:34;;;;;;;;;;;21.30;55.70;;;;;;5042165;28;19971;-70
2021/06/02 10:59:01;;;;;;;;;;;21.30;55.60;;;;;;5033185;28;19965;-72
2021/06/02 11:01:30;;;;;;;;;;;21.40;56.40;;;;;;5040696;28;19962;-71
2021/06/02 11:04:11;;;;;;;;;;;21.40;56.40;;;;;;5042531;28;20923;-71
2021/06/02 11:06:38;;;;;;;;;;;21.50;56.30;;;;;;5034166;28;20576;-71
2021/06/02 11:09:07;;;;;;;;;;;21.50;56.20;;;;;;5042179;28;19967;-70
2021/06/02 11:11:35;;;;;;;;;;;21.50;56.00;;;;;;5019865;28;19958;-71
2021/06/02 11:14:20;;;;;;;;;;;21.40;55.90;;;;;;5017693;28;25790;-70
2021/06/02 11:16:46;;;;;;;;;;;21.40;55.80;;;;;;5028160;28;19969;-70
2021/06/02 11:19:12;;;;;;;;;;;21.40;55.90;;;;;;5033669;28;19970;-70
2021/06/02 11:21:43;;;;;;;;;;;21.40;55.80;;;;;;5045992;28;19963;-71
2021/06/02 11:24:14;;;;;;;;;;;21.40;55.80;;;;;;5039658;28;19969;-70
2021/06/02 11:26:41;;;;;;;;;;;21.40;55.90;;;;;;5043780;28;19970;-71
2021/06/02 11:29:13;;;;;;;;;;;21.40;56.00;;;;;;5043462;28;19965;-72
2021/06/02 11:31:39;;;;;;;;;;;21.40;55.80;;;;;;5041806;28;20470;-70
2021/06/02 11:34:23;;;;;;;;;;;21.40;55.70;;;;;;5030337;28;19967;-71
2021/06/02 11:36:57;;;;;;;;;;;21.40;55.60;;;;;;5041544;28;19962;-71
2021/06/02 11:39:23;;;;;;;;;;;21.40;55.60;;;;;;5045183;28;19963;-71
2021/06/02 11:41:50;;;;;;;;;;;21.40;55.50;;;;;;5045309;28;19965;-72
2021/06/02 11:44:16;;;;;;;;;;;21.40;55.60;;;;;;5046753;28;19974;-71
2021/06/02 11:46:46;;;;;;;;;;;21.40;55.60;;;;;;5045740;28;19982;-70
2021/06/02 11:49:22;;;;;;;;;;;21.40;55.80;;;;;;5043149;28;19963;-70
2021/06/02 11:51:49;;;;;;;;;;;21.40;55.70;;;;;;5040101;28;19963;-69
2021/06/02 11:54:15;;;;;;;;;;;21.40;55.50;;;;;;5042539;28;19969;-70
2021/06/02 11:56:41;;;;;;;;;;;21.40;55.50;;;;;;5040923;28;19969;-71
2021/06/02 11:59:08;;;;;;;;;;;21.40;55.60;;;;;;5045512;28;19963;-70
2021/06/02 12:01:34;;;;;;;;;;;21.40;55.60;;;;;;5043712;28;19968;-72
2021/06/02 12:04:00;;;;;;;;;;;21.40;56.10;;;;;;5044718;28;20517;-71
2021/06/02 12:06:29;;;;;;;;;;;21.40;55.70;;;;;;5021125;28;19940;-71
2021/06/02 12:08:55;;;;;;;;;;;21.40;55.90;;;;;;5033535;28;19963;-71
2021/06/02 12:11:21;;;;;;;;;;;21.50;55.80;;;;;;5029257;28;19970;-70
2021/06/02 12:13:47;;;;;;;;;;;21.50;55.70;;;;;;5037771;28;19973;-69
2021/06/02 12:16:15;;;;;;;;;;;21.50;55.70;;;;;;5040261;28;20632;-70
2021/06/02 12:18:43;;;;;;;;;;;21.50;55.70;;;;;;5044108;28;19963;-72
2021/06/02 12:21:10;;;;;;;;;;;21.50;55.70;;;;;;5021548;28;20009;-70
2021/06/02 12:23:44;;;;;;;;;;;21.50;56.50;;;;;;5043891;28;19968;-71
2021/06/02 12:26:16;;;;;;;;;;;21.50;55.70;;;;;;5041674;28;19967;-70
2021/06/02 12:28:43;;;;;;;;;;;21.40;55.60;;;;;;5034199;28;19970;-71
2021/06/02 12:31:09;;;;;;;;;;;21.50;55.80;;;;;;5019497;28;21546;-71
2021/06/02 12:33:36;;;;;;;;;;;21.50;55.70;;;;;;5040331;28;19965;-71
2021/06/02 12:36:05;;;;;;;;;;;21.50;55.70;;;;;;5016955;28;20445;-72
2021/06/02 12:38:31;;;;;;;;;;;21.50;55.70;;;;;;5040512;28;19966;-71
2021/06/02 12:40:59;;;;;;;;;;;21.50;55.70;;;;;;5040311;28;20016;-71
2021/06/02 12:43:26;;;;;;;;;;;21.50;55.70;;;;;;5042027;28;19959;-70
2021/06/02 12:45:52;;;;;;;;;;;21.50;55.70;;;;;;5036679;28;19963;-71
2021/06/02 12:48:19;;;;;;;;;;;21.50;55.70;;;;;;5036822;28;19971;-71
2021/06/02 12:50:46;;;;;;;;;;;21.50;55.70;;;;;;5034985;28;20013;-69
2021/06/02 12:53:13;;;;;;;;;;;21.50;55.80;;;;;;5043143;28;20065;-71
2021/06/02 12:55:39;;;;;;;;;;;21.50;55.80;;;;;;5040753;28;19967;-70
2021/06/02 12:58:06;;;;;;;;;;;21.50;56.00;;;;;;5046601;28;19970;-70
2021/06/02 13:00:32;;;;;;;;;;;21.50;56.00;;;;;;5037326;28;19963;-71
2021/06/02 13:02:58;;;;;;;;;;;21.50;56.00;;;;;;5047819;28;19965;-73
2021/06/02 13:05:25;;;;;;;;;;;21.50;56.00;;;;;;5042244;28;20352;-72
2021/06/02 13:07:52;;;;;;;;;;;21.50;56.10;;;;;;5046184;28;20050;-71
2021/06/02 13:10:19;;;;;;;;;;;21.40;55.90;;;;;;5036568;28;20054;-71
2021/06/02 13:12:51;;;;;;;;;;;21.50;55.90;;;;;;5043460;28;19958;-72
2021/06/02 13:15:21;;;;;;;;;;;21.40;55.90;;;;;;5042962;28;19973;-71
2021/06/02 13:17:47;;;;;;;;;;;21.50;56.00;;;;;;5034437;28;20793;-73
2021/06/02 13:20:13;;;;;;;;;;;21.50;56.10;;;;;;5029017;28;19977;-70
2021/06/02 13:22:39;;;;;;;;;;;21.50;56.10;;;;;;5044665;28;20858;-70
2021/06/02 13:25:07;;;;;;;;;;;21.50;56.20;;;;;;5041952;28;19959;-71
2021/06/02 13:27:33;;;;;;;;;;;21.50;56.40;;;;;;5006946;28;19966;-70
2021/06/02 13:30:00;;;;;;;;;;;21.50;56.40;;;;;;5036139;28;20328;-72
2021/06/02 13:32:26;;;;;;;;;;;21.50;56.40;;;;;;5041712;28;19959;-73
2021/06/02 13:34:52;;;;;;;;;;;21.40;56.40;;;;;;5044290;28;20030;-71
2021/06/02 13:37:18;;;;;;;;;;;21.50;56.40;;;;;;5043086;28;19961;-69
2021/06/02 13:39:59;;;;;;;;;;;21.50;56.40;;;;;;5042556;28;19963;-71
2021/06/02 13:42:26;;;;;;;;;;;21.40;56.40;;;;;;5039153;28;20700;-70
2021/06/02 13:44:55;;;;;;;;;;;21.50;56.40;;;;;;5046320;28;20512;-71
2021/06/02 13:47:29;;;;;;;;;;;21.50;56.40;;;;;;5046185;28;19972;-71
2021/06/02 13:50:08;;;;;;;;;;;21.40;56.40;;;;;;5038227;28;19966;-71
2021/06/02 13:52:34;;;;;;;;;;;21.50;56.40;;;;;;5032524;28;19962;-71
2021/06/02 13:55:00;;;;;;;;;;;21.50;56.40;;;;;;5043606;28;19965;-72
2021/06/02 13:57:28;;;;;;;;;;;21.50;56.40;;;;;;5042633;28;19971;-72
2021/06/02 13:59:55;;;;;;;;;;;21.50;56.50;;;;;;5037082;28;19970;-75
2021/06/02 14:02:22;;;;;;;;;;;21.50;57.20;;;;;;5041676;28;19966;-73
2021/06/02 14:04:48;;;;;;;;;;;21.60;56.50;;;;;;5041511;28;19966;-71
2021/06/02 14:07:14;;;;;;;;;;;21.60;56.50;;;;;;5037494;28;19974;-72
2021/06/02 14:09:40;;;;;;;;;;;21.60;56.50;;;;;;5045861;28;19966;-71
2021/06/02 14:12:07;;;;;;;;;;;21.60;56.50;;;;;;5043732;28;19935;-73
2021/06/02 14:14:34;;;;;;;;;;;21.60;56.50;;;;;;5027318;28;19966;-71
2021/06/02 14:17:00;;;;;;;;;;;21.60;56.50;;;;;;5034376;28;19967;-71
2021/06/02 14:19:26;;;;;;;;;;;21.60;57.30;;;;;;5020941;28;19968;-71
2021/06/02 14:21:52;;;;;;;;;;;21.60;57.30;;;;;;5030520;28;19959;-72
2021/06/02 14:24:18;;;;;;;;;;;21.60;57.60;;;;;;5042296;28;19965;-72
2021/06/02 14:26:45;;;;;;;;;;;21.70;59.10;;;;;;5042850;28;20016;-74
2021/06/02 14:29:11;;;;;;;;;;;21.70;58.70;;;;;;5040828;28;19972;-76
2021/06/02 14:31:39;;;;;;;;;;;21.70;58.90;;;;;;5042224;28;19971;-72